Impacts TAF Board INFO
FOR SITUATIONAL AWARENESS. NOT TO BE USED FOR FLIGHT PLANNING PURPOSES.
IDs:

KCLE - Cleveland/Hopkins In, OH, US

Issued at 1139 UTC 21 May 2018
Updated at 1306 UTC 21 May 2018
Potential Impact None Slight Moderate High
Time<<22/14Z 22/15Z 22/16Z 22/17Z 22/18Z 22/19Z 22/20Z 22/21Z 22/22Z 22/23Z 23/00Z 23/01Z 23/02Z
Type PRVL PRVL PRVL PRVL
VIS >6 >6 >6 >6
CIG 25 20 20 20
Cover OVC BKN BKN BKN
FltCat MVFR MVFR MVFR MVFR
WX -- -- -- --
WDir 190 250 250 250
WSpd 8 8 8 8
WGst -- -- -- --

Raw TAF
KCLE 211139Z 2112/2218 05004KT P6SM BKN100
  FM220200 10006KT 6SM -SHRA VCTS BKN035CB
  FM221000 19008KT P6SM OVC025
  FM221500 25008KT P6SM BKN020


METAR Board
Radar Display
Forecast Discussion

FOR SITUATIONAL AWARENESS. NOT TO BE USED FOR FLIGHT PLANNING PURPOSES.